Time;durP1;ratioP1;P1;durP2;ratioP2;P2;SDS_P1;SDS_P2;PMS_P1;PMS_P2;Temp;Humidity;BMP_temperature;BMP_pressure;BME280_temperature;BME280_humidity;BME280_pressure;Samples;Min_cycle;Max_cycle;Signal;HPM_P1;HPM_P2
2021/05/05 04:12:09;;;;;;;0.70;0.70;;;10.80;97.70;;;;;;5203538;23;20698;-74
2021/05/05 04:14:36;;;;;;;0.75;0.75;;;10.80;97.90;;;;;;4983493;28;20215;-74
2021/05/05 04:17:20;;;;;;;0.70;0.70;;;10.70;97.80;;;;;;4974796;28;20189;-74
2021/05/05 04:20:07;;;;;;;0.70;0.70;;;10.70;97.90;;;;;;4974918;28;20208;-74
2021/05/05 04:22:52;;;;;;;0.60;0.60;;;10.70;98.20;;;;;;4956162;29;20704;-75
2021/05/05 04:25:36;;;;;;;0.60;0.60;;;10.70;98.10;;;;;;4954871;29;20276;-74
2021/05/05 04:28:05;;;;;;;0.70;0.70;;;10.70;98.20;;;;;;4955283;29;20674;-76
2021/05/05 04:30:31;;;;;;;0.70;0.70;;;10.70;98.10;;;;;;4968664;28;20725;-75
2021/05/05 04:32:58;;;;;;;0.70;0.70;;;10.70;98.10;;;;;;4973928;28;20677;-75
2021/05/05 04:35:26;;;;;;;0.88;0.88;;;10.80;98.10;;;;;;4974066;28;20689;-75
2021/05/05 04:37:53;;;;;;;0.70;0.70;;;10.80;98.10;;;;;;4974107;28;20653;-75
2021/05/05 04:40:19;;;;;;;0.60;0.60;;;10.60;99.90;;;;;;4974075;28;20677;-75
2021/05/05 04:42:46;;;;;;;0.80;0.80;;;10.70;97.90;;;;;;4974322;28;20852;-76
2021/05/05 04:45:14;;;;;;;0.68;0.68;;;10.90;98.00;;;;;;4973712;28;20277;-76
2021/05/05 04:47:41;;;;;;;0.77;0.77;;;11.00;97.60;;;;;;4973995;28;20219;-76
2021/05/05 04:50:10;;;;;;;0.73;0.73;;;11.00;97.60;;;;;;4974064;28;20256;-75
2021/05/05 04:52:38;;;;;;;0.73;0.73;;;11.00;97.40;;;;;;4974145;28;20208;-76
2021/05/05 04:55:07;;;;;;;0.57;0.57;;;11.10;97.30;;;;;;4974082;28;20252;-76
2021/05/05 04:57:34;;;;;;;0.70;0.70;;;11.20;97.10;;;;;;4974479;28;20275;-75
2021/05/05 05:00:00;;;;;;;0.70;0.70;;;11.20;96.60;;;;;;4973712;28;20259;-76
2021/05/05 05:02:28;;;;;;;0.65;0.65;;;11.40;96.80;;;;;;4974077;28;20276;-75
2021/05/05 05:04:55;;;;;;;0.60;0.60;;;11.40;96.50;;;;;;4972691;28;20259;-76
2021/05/05 05:07:22;;;;;;;0.70;0.70;;;11.50;96.30;;;;;;4972951;28;20244;-76
2021/05/05 05:09:49;;;;;;;0.60;0.60;;;11.60;96.00;;;;;;4973935;28;20201;-76
2021/05/05 05:12:16;;;;;;;0.60;0.60;;;11.70;95.80;;;;;;4973687;28;20233;-78
2021/05/05 05:14:43;;;;;;;0.60;0.60;;;11.90;95.50;;;;;;4973778;28;20232;-76
2021/05/05 05:17:10;;;;;;;0.60;0.60;;;11.90;94.70;;;;;;4973953;28;20208;-76
2021/05/05 05:19:38;;;;;;;0.60;0.60;;;11.90;94.60;;;;;;4973623;28;20204;-75
2021/05/05 05:22:05;;;;;;;0.60;0.60;;;11.70;94.30;;;;;;4973724;28;20224;-74
2021/05/05 05:24:32;;;;;;;0.70;0.70;;;11.80;94.50;;;;;;4971502;28;20275;-75
2021/05/05 05:26:59;;;;;;;0.60;0.60;;;11.90;94.60;;;;;;4973300;28;20943;-74
2021/05/05 05:29:26;;;;;;;0.60;0.60;;;12.00;93.90;;;;;;4973632;28;20208;-74
2021/05/05 05:31:53;;;;;;;0.70;0.70;;;11.90;94.20;;;;;;4973482;28;20228;-76
2021/05/05 05:34:20;;;;;;;0.52;0.52;;;12.00;93.90;;;;;;4973238;28;20204;-77
2021/05/05 05:36:48;;;;;;;0.60;0.60;;;12.10;93.70;;;;;;4973171;28;20229;-76
2021/05/05 05:39:15;;;;;;;0.50;0.50;;;12.20;93.60;;;;;;4973198;28;20204;-76
2021/05/05 05:41:42;;;;;;;0.60;0.60;;;12.30;93.70;;;;;;4973159;28;20221;-76
2021/05/05 05:44:09;;;;;;;0.60;0.60;;;12.40;92.70;;;;;;4973423;28;20251;-76
2021/05/05 05:46:38;;;;;;;0.60;0.60;;;12.30;93.60;;;;;;4973540;28;20646;-76
2021/05/05 05:49:06;;;;;;;0.60;0.60;;;12.10;92.10;;;;;;4973205;28;20201;-75
2021/05/05 05:51:33;;;;;;;0.60;0.60;;;12.00;91.90;;;;;;4973104;28;20225;-77
2021/05/05 05:54:01;;;;;;;0.60;0.60;;;12.10;91.80;;;;;;4974531;28;20231;-75
2021/05/05 05:56:28;;;;;;;0.50;0.50;;;11.90;91.90;;;;;;4974827;28;20212;-75
2021/05/05 05:58:55;;;;;;;0.68;0.68;;;12.10;91.60;;;;;;4973369;28;20692;-76
2021/05/05 06:01:26;;;;;;;0.57;0.57;;;12.30;91.50;;;;;;4973557;28;20224;-77
2021/05/05 06:03:53;;;;;;;0.60;0.60;;;12.20;90.90;;;;;;4972843;28;20736;-75
2021/05/05 06:06:21;;;;;;;0.50;0.50;;;12.10;90.40;;;;;;4972628;28;20213;-76
2021/05/05 06:08:47;;;;;;;0.60;0.60;;;12.20;90.70;;;;;;4972537;28;20241;-76
2021/05/05 06:11:16;;;;;;;0.80;0.80;;;12.10;91.00;;;;;;4972713;28;20274;-76
2021/05/05 06:13:42;;;;;;;0.60;0.60;;;12.00;90.50;;;;;;4972332;28;20713;-77
2021/05/05 06:16:13;;;;;;;0.60;0.60;;;12.20;90.40;;;;;;4972791;28;20243;-76
2021/05/05 06:18:40;;;;;;;0.60;0.60;;;12.20;89.60;;;;;;4972579;28;20254;-76
2021/05/05 06:21:07;;;;;;;0.60;0.60;;;12.40;89.20;;;;;;4977303;28;20228;-76
2021/05/05 06:23:34;;;;;;;0.60;0.60;;;12.60;88.50;;;;;;4989469;28;20208;-75
2021/05/05 06:26:01;;;;;;;0.60;0.60;;;12.70;87.20;;;;;;4978019;28;20725;-75
2021/05/05 06:28:29;;;;;;;0.60;0.60;;;12.60;86.70;;;;;;4976909;28;20209;-75
2021/05/05 06:30:57;;;;;;;0.50;0.50;;;12.60;87.90;;;;;;4976036;28;20219;-76
2021/05/05 06:33:25;;;;;;;0.50;0.50;;;12.60;88.50;;;;;;4976462;28;20300;-75
2021/05/05 06:35:52;;;;;;;0.50;0.50;;;12.80;87.40;;;;;;4976650;28;20744;-76
2021/05/05 06:38:19;;;;;;;0.50;0.50;;;12.80;87.50;;;;;;4976527;28;20256;-77
2021/05/05 06:40:45;;;;;;;0.50;0.50;;;12.80;87.20;;;;;;4976715;28;20298;-77
2021/05/05 06:43:13;;;;;;;0.60;0.60;;;12.80;87.60;;;;;;4977002;28;20200;-77
2021/05/05 06:45:40;;;;;;;0.60;0.60;;;12.70;88.00;;;;;;4975885;28;20868;-77
2021/05/05 06:48:07;;;;;;;0.60;0.60;;;12.80;87.50;;;;;;4976182;28;20665;-78
2021/05/05 06:50:34;;;;;;;0.50;0.50;;;12.90;86.90;;;;;;4976787;28;20584;-78
2021/05/05 06:53:01;;;;;;;0.50;0.50;;;12.70;86.70;;;;;;4975944;28;20197;-78
2021/05/05 06:55:28;;;;;;;0.60;0.60;;;12.80;86.60;;;;;;4976545;28;20201;-78
2021/05/05 06:57:55;;;;;;;0.57;0.57;;;13.00;85.70;;;;;;4976535;28;20193;-73
2021/05/05 07:00:23;;;;;;;0.60;0.60;;;13.00;98.00;;;;;;4972075;28;20212;-73
2021/05/05 07:02:50;;;;;;;0.60;0.60;;;13.00;86.30;;;;;;4975296;28;20201;-74
2021/05/05 07:05:18;;;;;;;0.57;0.57;;;13.00;86.40;;;;;;4975310;28;20246;-75
2021/05/05 07:07:45;;;;;;;0.60;0.60;;;13.00;85.60;;;;;;4974599;28;20576;-75
2021/05/05 07:10:13;;;;;;;0.50;0.50;;;13.10;97.80;;;;;;4975148;28;20212;-74
2021/05/05 07:12:40;;;;;;;0.60;0.60;;;12.80;86.50;;;;;;4975608;28;20341;-76
2021/05/05 07:15:08;;;;;;;0.60;0.60;;;12.80;85.40;;;;;;4975067;28;20248;-77
2021/05/05 07:17:34;;;;;;;0.60;0.60;;;12.80;84.00;;;;;;4975733;28;20196;-78
2021/05/05 07:20:03;;;;;;;0.50;0.50;;;12.70;83.90;;;;;;4975467;28;20295;-76
2021/05/05 07:22:30;;;;;;;0.60;0.60;;;12.80;84.50;;;;;;4975193;28;20220;-76
2021/05/05 07:24:57;;;;;;;0.60;0.60;;;12.80;82.50;;;;;;4975236;28;20212;-76
2021/05/05 07:27:24;;;;;;;0.50;0.50;;;12.70;82.50;;;;;;4975435;28;20203;-76
2021/05/05 07:29:51;;;;;;;0.60;0.60;;;12.60;82.40;;;;;;4975929;28;20201;-77
2021/05/05 07:32:18;;;;;;;0.60;0.60;;;12.70;81.40;;;;;;4975325;28;20279;-77
2021/05/05 07:34:45;;;;;;;0.70;0.70;;;12.70;78.90;;;;;;4975435;28;20201;-76
2021/05/05 07:37:15;;;;;;;0.60;0.60;;;12.40;79.30;;;;;;4975214;28;20275;-77
2021/05/05 07:40:16;;;;;;;0.57;0.57;;;12.30;80.90;;;;;;4975218;28;20201;-76
2021/05/05 07:45:48;;;;;;;0.60;0.60;;;12.20;80.50;;;;;;4974927;28;20233;-77
2021/05/05 07:48:24;;;;;;;0.60;0.60;;;12.20;81.20;;;;;;4974680;28;20678;-78
2021/05/05 07:50:52;;;;;;;0.60;0.60;;;12.30;82.20;;;;;;4975245;28;20275;-78
2021/05/05 07:53:19;;;;;;;0.60;0.60;;;12.30;80.00;;;;;;4975322;28;20197;-77
2021/05/05 07:55:45;;;;;;;0.70;0.70;;;12.20;79.40;;;;;;4975791;28;20358;-76
2021/05/05 07:58:12;;;;;;;0.70;0.70;;;12.20;79.00;;;;;;4975260;28;20205;-77
2021/05/05 08:00:39;;;;;;;0.50;0.50;;;12.30;79.30;;;;;;4975214;28;20225;-78
2021/05/05 08:03:06;;;;;;;0.50;0.50;;;12.60;79.90;;;;;;4974993;28;20200;-77
2021/05/05 08:05:34;;;;;;;0.60;0.60;;;12.60;80.10;;;;;;4974768;28;20220;-77
2021/05/05 08:08:01;;;;;;;0.50;0.50;;;12.90;79.60;;;;;;4975914;28;20197;-78
2021/05/05 08:10:29;;;;;;;0.60;0.60;;;13.50;94.00;;;;;;4974821;28;20189;-77
2021/05/05 08:12:56;;;;;;;0.60;0.60;;;13.40;77.40;;;;;;4973938;28;20243;-77
2021/05/05 08:15:23;;;;;;;0.50;0.50;;;13.50;76.90;;;;;;4974649;28;20193;-77
2021/05/05 08:17:50;;;;;;;0.60;0.60;;;13.30;77.30;;;;;;4975027;28;20201;-76
2021/05/05 08:20:17;;;;;;;0.60;0.60;;;13.30;94.40;;;;;;4974422;28;20620;-77
2021/05/05 08:22:45;;;;;;;0.60;0.60;;;13.30;78.10;;;;;;4974320;28;20243;-77
2021/05/05 08:25:13;;;;;;;0.60;0.60;;;13.40;77.30;;;;;;4973866;28;20220;-75
2021/05/05 08:27:40;;;;;;;0.65;0.65;;;13.50;77.00;;;;;;4974777;28;20259;-77
2021/05/05 08:30:16;;;;;;;0.60;0.60;;;13.60;93.70;;;;;;4974608;28;20204;-76
2021/05/05 08:32:43;;;;;;;0.60;0.60;;;13.80;75.70;;;;;;4973941;28;20573;-77
2021/05/05 08:35:11;;;;;;;0.50;0.50;;;13.90;74.70;;;;;;4974101;28;20207;-76
2021/05/05 08:37:39;;;;;;;0.60;0.60;;;13.90;73.00;;;;;;4974374;28;20267;-77
2021/05/05 08:40:09;;;;;;;0.50;0.50;;;14.10;74.60;;;;;;4974606;28;20262;-77
2021/05/05 08:42:41;;;;;;;0.60;0.60;;;14.00;72.80;;;;;;4974099;28;20205;-76
2021/05/05 08:45:14;;;;;;;0.60;0.60;;;13.60;73.40;;;;;;4972982;28;20760;-77
2021/05/05 08:47:43;;;;;;;0.60;0.60;;;13.60;73.50;;;;;;4974584;28;20204;-77
2021/05/05 08:50:11;;;;;;;0.50;0.50;;;13.50;72.50;;;;;;4968808;28;20228;-77
2021/05/05 08:52:39;;;;;;;0.50;0.50;;;13.50;71.90;;;;;;4973996;28;20564;-77
2021/05/05 08:55:08;;;;;;;0.60;0.60;;;13.50;73.60;;;;;;4974081;28;20189;-77
2021/05/05 08:57:35;;;;;;;0.60;0.60;;;13.50;71.70;;;;;;4973993;28;20192;-77
2021/05/05 09:00:06;;;;;;;0.50;0.50;;;13.40;71.00;;;;;;4975384;28;20201;-77
2021/05/05 09:02:33;;;;;;;0.60;0.60;;;13.20;68.10;;;;;;4968276;28;20663;-77
2021/05/05 09:05:04;;;;;;;0.50;0.50;;;13.00;67.80;;;;;;4973244;28;20227;-77
2021/05/05 09:07:33;;;;;;;0.60;0.60;;;13.10;67.50;;;;;;4973031;28;20207;-78
2021/05/05 09:10:03;;;;;;;0.60;0.60;;;12.90;67.50;;;;;;4971870;28;20248;-78
2021/05/05 09:12:35;;;;;;;0.70;0.70;;;12.90;68.10;;;;;;4974610;28;20650;-77
2021/05/05 09:15:07;;;;;;;0.70;0.70;;;13.00;68.00;;;;;;4969716;28;20216;-77
2021/05/05 09:17:35;;;;;;;0.50;0.50;;;13.10;65.40;;;;;;4976084;28;20213;-77
2021/05/05 09:20:17;;;;;;;0.50;0.50;;;13.00;65.90;;;;;;4975556;28;20251;-77
2021/05/05 09:22:48;;;;;;;0.50;0.50;;;13.30;66.50;;;;;;4975618;28;20271;-77
2021/05/05 09:25:16;;;;;;;0.50;0.50;;;13.40;65.70;;;;;;4974178;28;20233;-77
2021/05/05 09:28:07;;;;;;;0.63;0.63;;;13.40;85.60;;;;;;4971527;28;20248;-77
2021/05/05 09:30:35;;;;;;;0.60;0.60;;;13.40;65.80;;;;;;4972849;28;20785;-76
2021/05/05 09:33:03;;;;;;;0.60;0.60;;;13.40;85.00;;;;;;4971867;28;20197;-77
2021/05/05 09:35:34;;;;;;;0.60;0.60;;;13.40;64.80;;;;;;4973694;28;20729;-78
2021/05/05 09:38:06;;;;;;;0.60;0.60;;;13.50;63.10;;;;;;4976743;28;20322;-78
2021/05/05 09:40:34;;;;;;;0.60;0.60;;;13.20;62.30;;;;;;4977931;28;20224;-79
2021/05/05 09:43:15;;;;;;;0.60;0.60;;;13.60;63.30;;;;;;4976625;28;20263;-77
2021/05/05 09:45:43;;;;;;;0.60;0.60;;;13.60;63.40;;;;;;4976998;28;20414;-77
2021/05/05 09:48:11;;;;;;;0.60;0.60;;;13.50;62.70;;;;;;4974046;28;20613;-77
2021/05/05 09:50:40;;;;;;;0.55;0.55;;;13.60;63.90;;;;;;4974100;28;20221;-77
2021/05/05 09:53:15;;;;;;;0.60;0.60;;;13.60;64.80;;;;;;4975209;28;20204;-80
2021/05/05 09:55:42;;;;;;;0.60;0.60;;;13.60;66.90;;;;;;4975809;28;20232;-77
2021/05/05 09:58:28;;;;;;;0.63;0.63;;;13.50;67.10;;;;;;4976826;28;20292;-78
2021/05/05 10:01:20;;;;;;;0.55;0.55;;;13.30;69.30;;;;;;4977529;28;20221;-78
2021/05/05 10:03:49;;;;;;;0.60;0.60;;;13.30;70.70;;;;;;4980373;28;20205;-76
2021/05/05 10:06:21;;;;;;;0.60;0.60;;;13.20;69.70;;;;;;4978692;28;20643;-77
2021/05/05 10:08:50;;;;;;;0.50;0.50;;;13.10;70.50;;;;;;4991684;28;20231;-77
2021/05/05 10:11:21;;;;;;;0.60;0.60;;;13.00;71.10;;;;;;4977581;28;20232;-76
2021/05/05 10:13:58;;;;;;;0.60;0.60;;;13.00;71.60;;;;;;4978031;28;20288;-78
2021/05/05 10:16:27;;;;;;;0.60;0.60;;;13.00;74.30;;;;;;4976971;28;20196;-78
2021/05/05 10:18:54;;;;;;;0.60;0.60;;;12.90;74.20;;;;;;4977192;28;20200;-77
2021/05/05 10:21:24;;;;;;;0.70;0.70;;;12.70;74.60;;;;;;4975428;28;20773;-76
2021/05/05 10:23:56;;;;;;;0.70;0.70;;;13.40;75.90;;;;;;4972080;28;20188;-75
2021/05/05 10:26:24;;;;;;;0.60;0.60;;;12.80;74.60;;;;;;4974123;28;20235;-77
2021/05/05 10:28:52;;;;;;;0.60;0.60;;;12.90;71.20;;;;;;4979555;28;20228;-79
2021/05/05 10:31:21;;;;;;;0.50;0.50;;;13.20;72.20;;;;;;4981495;28;20228;-78
2021/05/05 10:33:51;;;;;;;0.60;0.60;;;13.70;69.60;;;;;;4979176;28;20196;-77
2021/05/05 10:36:34;;;;;;;0.50;0.50;;;13.90;67.40;;;;;;4959807;28;20197;-78
2021/05/05 10:39:04;;;;;;;0.50;0.50;;;14.00;66.10;;;;;;4956148;28;20205;-78
2021/05/05 10:41:31;;;;;;;0.50;0.50;;;13.90;65.20;;;;;;4957266;28;20225;-77
2021/05/05 10:43:59;;;;;;;0.50;0.50;;;14.00;63.50;;;;;;4973638;28;20204;-77
2021/05/05 10:46:29;;;;;;;0.50;0.50;;;14.00;65.40;;;;;;4978470;28;20220;-77
2021/05/05 10:49:03;;;;;;;0.60;0.60;;;13.80;84.20;;;;;;4976455;28;20200;-76
2021/05/05 10:51:58;;;;;;;0.60;0.60;;;13.90;64.00;;;;;;4974369;28;20775;-78
2021/05/05 10:54:53;;;;;;;0.50;0.50;;;13.60;65.10;;;;;;4962416;28;20205;-78
2021/05/05 10:57:22;;;;;;;0.50;0.50;;;13.50;66.30;;;;;;4972731;28;20267;-72
2021/05/05 11:00:10;;;;;;;0.60;0.60;;;13.50;65.50;;;;;;4972329;28;20248;-76
2021/05/05 11:02:48;;;;;;;0.60;0.60;;;13.40;64.80;;;;;;4970592;28;20212;-74
2021/05/05 11:05:18;;;;;;;0.60;0.60;;;13.30;66.80;;;;;;4972094;28;20232;-75
2021/05/05 11:07:49;;;;;;;0.55;0.55;;;13.20;64.90;;;;;;4974794;28;20228;-74
2021/05/05 11:10:45;;;;;;;0.70;0.70;;;13.60;84.80;;;;;;4975561;28;20208;-74
2021/05/05 11:13:40;;;;;;;0.60;0.60;;;13.40;64.50;;;;;;4974428;28;20197;-76
2021/05/05 11:16:08;;;;;;;0.70;0.70;;;13.50;64.40;;;;;;4966888;28;20189;-77
2021/05/05 11:18:45;;;;;;;0.60;0.60;;;13.50;64.40;;;;;;4976240;28;20207;-76
2021/05/05 11:21:41;;;;;;;0.50;0.50;;;13.30;63.90;;;;;;4976221;28;20236;-76
2021/05/05 11:24:36;;;;;;;0.60;0.60;;;13.40;63.50;;;;;;4976883;28;20258;-75
2021/05/05 11:27:05;;;;;;;0.50;0.50;;;13.60;63.70;;;;;;4975141;28;20259;-76
2021/05/05 11:29:40;;;;;;;0.50;0.50;;;13.60;63.50;;;;;;4975839;28;20201;-76
2021/05/05 11:32:11;;;;;;;0.60;0.60;;;13.40;63.90;;;;;;4975602;28;20220;-76
2021/05/05 11:34:40;;;;;;;0.60;0.60;;;13.40;63.70;;;;;;4973034;28;20636;-76
2021/05/05 11:37:19;;;;;;;0.60;0.60;;;13.10;63.50;;;;;;4975134;28;20204;-76
2021/05/05 11:39:50;;;;;;;0.60;0.60;;;13.20;65.20;;;;;;4976092;28;20396;-76
2021/05/05 11:42:20;;;;;;;0.60;0.60;;;13.20;65.10;;;;;;4971352;28;20227;-76
2021/05/05 11:45:10;;;;;;;0.60;0.60;;;12.80;70.40;;;;;;4974567;28;20576;-77
2021/05/05 11:47:40;;;;;;;0.70;0.70;;;12.20;78.60;;;;;;4974334;28;20248;-77
2021/05/05 11:50:11;;;;;;;0.70;0.70;;;11.60;89.80;;;;;;4978256;28;20207;-77
2021/05/05 11:52:41;;;;;;;0.80;0.80;;;11.10;92.10;;;;;;4971550;28;20207;-76
2021/05/05 11:55:18;;;;;;;0.80;0.80;;;10.80;93.30;;;;;;4976662;28;20201;-76
2021/05/05 11:57:48;;;;;;;0.93;0.93;;;10.90;89.60;;;;;;4974672;28;20569;-76
2021/05/05 12:00:17;;;;;;;0.80;0.80;;;11.50;96.90;;;;;;4973286;28;20208;-76
2021/05/05 12:02:47;;;;;;;0.70;0.70;;;11.40;79.50;;;;;;4973437;28;20252;-75
2021/05/05 12:05:25;;;;;;;0.60;0.60;;;11.80;78.80;;;;;;4973241;28;20215;-76
2021/05/05 12:08:04;;;;;;;0.70;0.70;;;12.00;76.20;;;;;;4974402;28;20570;-76
2021/05/05 12:10:40;;;;;;;0.77;0.77;;;12.20;93.30;;;;;;4972559;28;20200;-76
2021/05/05 12:13:08;;;;;;;0.70;0.70;;;12.30;73.40;;;;;;4974550;28;20207;-76
2021/05/05 12:15:37;;;;;;;0.70;0.70;;;12.40;70.80;;;;;;4974197;28;20189;-76
2021/05/05 12:18:16;;;;;;;0.60;0.60;;;12.50;69.50;;;;;;4973331;28;20728;-76
2021/05/05 12:20:43;;;;;;;0.70;0.70;;;12.60;69.90;;;;;;4975323;28;20232;-77
2021/05/05 12:23:11;;;;;;;0.60;0.60;;;12.80;71.40;;;;;;4975532;28;20208;-76
2021/05/05 12:25:38;;;;;;;0.60;0.60;;;13.00;69.30;;;;;;4974320;28;20698;-76
2021/05/05 12:28:09;;;;;;;0.60;0.60;;;13.10;67.90;;;;;;4972541;28;20201;-75
2021/05/05 12:30:47;;;;;;;0.70;0.70;;;13.00;66.60;;;;;;4974630;28;20217;-76
2021/05/05 12:33:16;;;;;;;0.60;0.60;;;13.10;64.80;;;;;;4974753;28;20208;-76
2021/05/05 12:35:44;;;;;;;0.70;0.70;;;13.20;63.20;;;;;;4974235;28;20247;-75
2021/05/05 12:38:15;;;;;;;0.60;0.60;;;13.10;63.10;;;;;;4974566;28;20212;-75
2021/05/05 12:40:43;;;;;;;0.60;0.60;;;13.10;62.60;;;;;;4974566;28;20224;-76
2021/05/05 12:43:15;;;;;;;0.70;0.70;;;13.20;63.50;;;;;;4974171;28;20204;-76
2021/05/05 12:45:43;;;;;;;0.60;0.60;;;13.60;62.00;;;;;;4973739;28;20221;-76
2021/05/05 12:48:10;;;;;;;0.50;0.50;;;13.80;61.20;;;;;;4976176;28;20662;-78
2021/05/05 12:50:39;;;;;;;0.60;0.60;;;13.50;61.80;;;;;;4975617;28;20248;-77
2021/05/05 12:53:06;;;;;;;0.60;0.60;;;13.00;70.40;;;;;;4975343;28;20624;-79
2021/05/05 12:55:38;;;;;;;0.60;0.60;;;12.40;77.50;;;;;;4973842;28;20588;-76
2021/05/05 12:58:08;;;;;;;0.73;0.73;;;11.90;80.40;;;;;;4974761;28;20279;-76
2021/05/05 13:00:38;;;;;;;0.70;0.70;;;11.50;83.00;;;;;;4969179;28;20238;-75
2021/05/05 13:03:08;;;;;;;0.85;0.85;;;11.50;84.10;;;;;;4971663;28;20208;-76
2021/05/05 13:06:03;;;;;;;0.70;0.70;;;10.50;97.90;;;;;;4972643;28;20228;-75
2021/05/05 13:08:43;;;;;;;0.80;0.80;;;10.40;89.80;;;;;;4972954;28;20205;-77
2021/05/05 13:11:23;;;;;;;0.70;0.70;;;9.70;99.90;;;;;;4970676;28;20251;-75
2021/05/05 13:13:53;;;;;;;0.80;0.80;;;9.60;96.50;;;;;;4969535;28;20196;-75
2021/05/05 13:16:44;;;;;;;0.90;0.90;;;8.90;99.90;;;;;;4970985;28;20279;-75
2021/05/05 13:30:22;;;;;;;0.90;0.90;;;8.70;99.90;;;;;;4972395;28;20248;-76
2021/05/05 13:32:53;;;;;;;1.00;1.00;;;8.70;99.90;;;;;;4972973;28;20197;-76
2021/05/05 13:35:32;;;;;;;0.90;0.90;;;9.20;99.90;;;;;;4970477;28;20204;-75
2021/05/05 13:38:13;;;;;;;0.70;0.70;;;9.50;99.90;;;;;;4970969;28;20196;-76
2021/05/05 13:40:43;;;;;;;0.80;0.80;;;10.00;99.60;;;;;;4968312;28;20217;-75
2021/05/05 13:43:25;;;;;;;0.80;0.80;;;10.50;97.30;;;;;;4973376;28;20205;-76
2021/05/05 13:46:01;;;;;;;0.60;0.60;;;10.80;97.70;;;;;;4973146;28;20781;-77
2021/05/05 13:48:43;;;;;;;0.80;0.80;;;11.20;94.90;;;;;;4973468;28;20200;-78
2021/05/05 13:51:12;;;;;;;0.77;0.77;;;11.20;93.40;;;;;;4972409;28;20248;-76
2021/05/05 13:53:45;;;;;;;0.80;0.80;;;11.60;91.90;;;;;;4973507;28;20768;-76
2021/05/05 13:56:12;;;;;;;0.75;0.75;;;11.90;91.30;;;;;;4973900;28;20192;-75
2021/05/05 13:58:40;;;;;;;0.60;0.60;;;11.90;90.00;;;;;;4973599;28;20209;-75
2021/05/05 14:01:07;;;;;;;0.70;0.70;;;12.00;90.50;;;;;;4973231;28;20382;-75
2021/05/05 14:03:34;;;;;;;0.60;0.60;;;12.10;90.60;;;;;;4973504;28;20204;-75
2021/05/05 14:06:00;;;;;;;0.60;0.60;;;12.00;90.90;;;;;;4973489;28;20701;-75
2021/05/05 14:08:28;;;;;;;0.70;0.70;;;11.80;90.20;;;;;;4973290;28;20232;-74
2021/05/05 14:10:56;;;;;;;0.80;0.80;;;11.40;90.70;;;;;;4974351;28;20698;-77
2021/05/05 14:13:23;;;;;;;0.70;0.70;;;10.80;97.90;;;;;;4978108;28;20204;-78
2021/05/05 14:15:52;;;;;;;0.80;0.80;;;9.70;99.90;;;;;;4981021;28;20216;-75
2021/05/05 14:18:20;;;;;;;0.87;0.87;;;8.90;99.90;;;;;;4971212;28;20627;-76
2021/05/05 14:20:48;;;;;;;0.90;0.90;;;8.80;99.90;;;;;;4979212;28;20640;-80
2021/05/05 14:23:14;;;;;;;0.90;0.90;;;8.20;99.90;;;;;;4980814;28;20205;-79
2021/05/05 14:25:42;;;;;;;0.93;0.93;;;8.00;99.90;;;;;;4981798;28;20756;-80
2021/05/05 14:28:11;;;;;;;0.90;0.90;;;8.10;99.90;;;;;;4980731;28;20197;-80
2021/05/05 14:30:38;;;;;;;1.00;1.00;;;8.10;99.90;;;;;;4978797;28;20255;-78
2021/05/05 14:33:06;;;;;;;0.85;0.85;;;8.80;99.90;;;;;;4975146;28;20204;-78
2021/05/05 14:35:35;;;;;;;0.80;0.80;;;9.40;99.90;;;;;;4979211;28;20204;-78
2021/05/05 14:38:05;;;;;;;0.80;0.80;;;9.90;99.90;;;;;;4974216;28;20224;-78
2021/05/05 14:40:34;;;;;;;0.80;0.80;;;10.30;99.90;;;;;;4974742;28;20630;-77
2021/05/05 14:43:05;;;;;;;0.80;0.80;;;10.30;99.90;;;;;;4977257;28;20196;-77
2021/05/05 14:48:30;;;;;;;0.80;0.80;;;10.60;99.90;;;;;;4927890;29;20251;-77
2021/05/05 14:50:57;;;;;;;0.80;0.80;;;10.90;99.90;;;;;;4964937;28;20243;-76
2021/05/05 14:53:25;;;;;;;0.80;0.80;;;10.80;99.10;;;;;;4976424;28;20213;-76
2021/05/05 14:55:54;;;;;;;0.80;0.80;;;10.80;98.10;;;;;;4977280;28;20192;-77
2021/05/05 14:58:25;;;;;;;0.70;0.70;;;11.10;97.90;;;;;;4977181;28;20204;-77
2021/05/05 15:00:52;;;;;;;0.60;0.60;;;11.60;97.30;;;;;;4976416;28;20246;-76
2021/05/05 15:03:21;;;;;;;0.80;0.80;;;11.80;94.60;;;;;;4976316;28;20673;-76
2021/05/05 15:05:54;;;;;;;0.75;0.75;;;11.50;92.50;;;;;;4976916;28;20229;-75
2021/05/05 15:08:29;;;;;;;0.70;0.70;;;11.40;93.10;;;;;;4976490;28;20199;-76
2021/05/05 15:11:15;;;;;;;0.70;0.70;;;11.50;93.00;;;;;;4977184;28;20220;-75
2021/05/05 15:13:48;;;;;;;0.70;0.70;;;11.50;92.20;;;;;;4977291;28;20208;-75
2021/05/05 15:30:06;;;;;;;0.70;0.70;;;11.70;90.50;;;;;;4976601;28;20197;-75
2021/05/05 15:35:30;;;;;;;0.80;0.80;;;11.70;89.90;;;;;;4975817;28;20609;-75
2021/05/05 15:38:03;;;;;;;0.65;0.65;;;12.00;89.40;;;;;;4975238;28;20224;-74
2021/05/05 15:40:46;;;;;;;0.70;0.70;;;12.40;97.40;;;;;;4976313;28;20197;-76
2021/05/05 15:43:44;;;;;;;0.70;0.70;;;12.40;89.00;;;;;;4976135;28;20348;-75
2021/05/05 15:46:19;;;;;;;0.70;0.70;;;12.70;86.60;;;;;;4976975;28;20693;-75
2021/05/05 15:48:46;;;;;;;0.73;0.73;;;12.30;84.70;;;;;;4976844;28;20638;-77
2021/05/05 15:51:13;;;;;;;0.70;0.70;;;12.30;87.00;;;;;;4976636;28;20221;-74
2021/05/05 15:53:42;;;;;;;0.60;0.60;;;12.30;86.50;;;;;;4967894;28;20666;-78
2021/05/05 15:56:14;;;;;;;0.70;0.70;;;12.60;85.70;;;;;;4975404;28;20207;-76
2021/05/05 15:58:43;;;;;;;0.52;0.52;;;12.60;85.00;;;;;;4975631;28;20624;-78
2021/05/05 16:01:15;;;;;;;0.70;0.70;;;12.70;84.70;;;;;;4975204;28;20594;-77
2021/05/05 16:04:23;;;;;;;0.60;0.60;;;12.60;85.30;;;;;;4975169;28;20276;-76
2021/05/05 16:09:53;;;;;;;0.70;0.70;;;12.80;84.50;;;;;;4974164;28;20566;-74
2021/05/05 16:12:37;;;;;;;0.60;0.60;;;12.80;83.30;;;;;;4972908;28;20291;-74
2021/05/05 16:15:15;;;;;;;0.70;0.70;;;12.70;83.70;;;;;;4972355;28;20681;-74
2021/05/05 16:17:41;;;;;;;0.75;0.75;;;12.50;82.80;;;;;;4973074;28;20239;-74
2021/05/05 16:20:13;;;;;;;0.70;0.70;;;12.40;80.60;;;;;;4974488;28;20256;-73
2021/05/05 16:22:45;;;;;;;0.60;0.60;;;12.50;79.90;;;;;;4975783;28;20358;-75
2021/05/05 16:25:20;;;;;;;0.70;0.70;;;12.60;77.60;;;;;;4975854;28;20270;-75
2021/05/05 16:44:55;;;;;;;0.70;0.70;;;12.80;75.80;;;;;;4987102;28;20668;-78
2021/05/05 16:47:30;;;;;;;0.50;0.50;;;12.90;75.90;;;;;;4992352;28;20230;-76
2021/05/05 16:55:30;;;;;;;0.60;0.60;;;12.90;78.70;;;;;;4973708;28;20208;-76
2021/05/05 16:58:06;;;;;;;0.60;0.60;;;12.70;79.20;;;;;;4992644;28;20440;-76
2021/05/05 17:09:09;;;;;;;0.50;0.50;;;12.90;78.10;;;;;;4996716;28;20215;-75
2021/05/05 17:11:36;;;;;;;0.60;0.60;;;13.00;77.70;;;;;;4998375;28;20660;-75
2021/05/05 17:14:04;;;;;;;0.60;0.60;;;13.00;77.40;;;;;;4993420;28;20208;-76
2021/05/05 17:16:31;;;;;;;0.60;0.60;;;13.00;76.50;;;;;;4993095;28;20219;-76
2021/05/05 17:19:04;;;;;;;0.70;0.70;;;13.00;76.70;;;;;;4989517;28;20287;-76
2021/05/05 17:21:32;;;;;;;0.60;0.60;;;12.80;77.50;;;;;;4976995;28;20299;-77
2021/05/05 17:24:02;;;;;;;0.60;0.60;;;12.60;77.50;;;;;;4974107;28;20193;-76
2021/05/05 17:26:33;;;;;;;0.80;0.80;;;12.20;78.00;;;;;;4973862;28;20279;-75
2021/05/05 17:29:14;;;;;;;0.60;0.60;;;12.00;79.20;;;;;;4974369;28;20228;-75
2021/05/05 17:45:32;;;;;;;0.80;0.80;;;10.80;83.10;;;;;;4973234;28;20208;-74
2021/05/05 17:48:22;;;;;;;0.70;0.70;;;10.80;83.70;;;;;;4973195;28;20283;-75
2021/05/05 18:10:14;;;;;;;1.20;1.20;;;7.60;99.90;;;;;;4978773;28;20243;-77
2021/05/05 18:13:21;;;;;;;1.33;1.33;;;6.90;99.90;;;;;;4983874;28;20216;-77
2021/05/05 18:15:57;;;;;;;1.33;1.33;;;6.50;99.90;;;;;;4990352;28;20200;-77
2021/05/05 18:18:25;;;;;;;1.37;1.37;;;6.40;99.90;;;;;;4985885;28;20242;-78
2021/05/05 18:20:55;;;;;;;1.20;1.20;;;6.50;99.90;;;;;;4990488;28;20707;-78
2021/05/05 18:23:25;;;;;;;1.13;1.13;;;6.50;99.90;;;;;;4995453;28;20255;-77
2021/05/05 18:26:06;;;;;;;1.30;1.30;;;6.60;99.90;;;;;;4982987;28;20243;-77
2021/05/05 18:28:54;;;;;;;1.10;1.10;;;6.60;99.90;;;;;;4986417;28;20243;-78
2021/05/05 18:31:21;;;;;;;1.20;1.20;;;6.60;99.90;;;;;;4987753;28;20599;-77
2021/05/05 18:33:48;;;;;;;1.10;1.10;;;6.70;99.90;;;;;;4986360;28;20197;-77
2021/05/05 18:36:19;;;;;;;1.13;1.13;;;6.70;99.90;;;;;;4981602;28;20232;-77
2021/05/05 18:38:45;;;;;;;1.00;1.00;;;6.70;99.90;;;;;;4978628;28;20205;-77
2021/05/05 18:41:28;;;;;;;1.17;1.17;;;6.80;99.90;;;;;;4978054;28;20213;-78
2021/05/05 18:44:11;;;;;;;1.00;1.00;;;6.80;99.90;;;;;;4997669;28;20188;-78
2021/05/05 19:15:29;;;;;;;0.80;0.80;;;7.30;99.90;;;;;;4984174;28;20220;-77
2021/05/05 20:39:01;;;;;;;0.90;0.90;;;7.80;99.90;;;;;;4992061;28;20250;-77
2021/05/05 20:53:23;;;;;;;1.00;1.00;;;7.80;99.90;;;;;;5010732;28;20203;-76
